Time;durP1;ratioP1;P1;durP2;ratioP2;P2;SDS_P1;SDS_P2;PMS_P1;PMS_P2;Temp;Humidity;BMP_temperature;BMP_pressure;BME280_temperature;BME280_humidity;BME280_pressure;Samples;Min_cycle;Max_cycle;Signal;HPM_P1;HPM_P2
2021/05/03 00:00:25;;;;;;;0.60;0.60;;;4.00;99.90;;;;;;5069011;28;20231;-76
2021/05/03 00:02:51;;;;;;;0.60;0.60;;;4.00;99.90;;;;;;5069305;28;20273;-76
2021/05/03 00:05:23;;;;;;;0.50;0.50;;;4.00;99.90;;;;;;5069195;28;20235;-76
2021/05/03 00:07:50;;;;;;;0.50;0.50;;;4.00;99.90;;;;;;5069028;28;20662;-76
2021/05/03 00:10:16;;;;;;;0.57;0.57;;;4.00;99.90;;;;;;5069134;28;20214;-77
2021/05/03 00:12:43;;;;;;;0.60;0.60;;;4.00;99.90;;;;;;5069117;28;20207;-76
2021/05/03 00:15:12;;;;;;;0.60;0.60;;;4.00;99.90;;;;;;5068777;28;20460;-77
2021/05/03 00:17:39;;;;;;;0.60;0.60;;;4.00;99.90;;;;;;5068946;28;20214;-77
2021/05/03 00:20:06;;;;;;;0.60;0.60;;;4.00;99.90;;;;;;5069006;28;20228;-77
2021/05/03 00:22:33;;;;;;;0.60;0.60;;;4.00;99.90;;;;;;5068844;28;20699;-77
2021/05/03 00:25:00;;;;;;;0.60;0.60;;;3.90;99.90;;;;;;5069000;28;20204;-77
2021/05/03 00:27:26;;;;;;;0.60;0.60;;;4.00;99.90;;;;;;5068820;28;20238;-77
2021/05/03 00:29:52;;;;;;;0.60;0.60;;;3.90;99.90;;;;;;5068693;28;20195;-77
2021/05/03 00:32:18;;;;;;;0.60;0.60;;;4.00;99.90;;;;;;5068894;28;20204;-76
2021/05/03 00:34:44;;;;;;;0.50;0.50;;;3.90;99.90;;;;;;5068704;28;20203;-77
2021/05/03 00:37:10;;;;;;;0.60;0.60;;;4.00;99.90;;;;;;5068633;28;20448;-76
2021/05/03 00:39:37;;;;;;;0.60;0.60;;;4.00;99.90;;;;;;5069225;28;20219;-76
2021/05/03 00:42:04;;;;;;;0.52;0.52;;;4.00;99.90;;;;;;5072815;28;20203;-77
2021/05/03 00:44:30;;;;;;;0.57;0.57;;;4.00;99.90;;;;;;5072659;28;20207;-76
2021/05/03 00:46:59;;;;;;;0.50;0.50;;;4.00;99.90;;;;;;5072596;28;20268;-76
2021/05/03 00:49:25;;;;;;;0.50;0.50;;;4.00;99.90;;;;;;5072514;28;20666;-76
2021/05/03 00:51:51;;;;;;;0.60;0.60;;;4.00;99.90;;;;;;5072523;28;20613;-76
2021/05/03 00:54:17;;;;;;;0.60;0.60;;;4.00;99.90;;;;;;5072864;28;20225;-77
2021/05/03 00:56:44;;;;;;;0.60;0.60;;;4.00;99.90;;;;;;5072137;28;20207;-77
2021/05/03 00:59:11;;;;;;;0.50;0.50;;;4.00;99.90;;;;;;5072543;28;20652;-76
2021/05/03 01:01:37;;;;;;;0.60;0.60;;;4.00;99.90;;;;;;5072260;28;20203;-77
2021/05/03 01:04:04;;;;;;;0.50;0.50;;;4.00;99.90;;;;;;5072355;28;20207;-77
2021/05/03 01:06:30;;;;;;;0.60;0.60;;;4.00;99.90;;;;;;5072089;28;20211;-77
2021/05/03 01:08:56;;;;;;;0.60;0.60;;;4.00;99.90;;;;;;5072264;28;20219;-77
2021/05/03 01:11:22;;;;;;;0.60;0.60;;;3.90;99.90;;;;;;5072214;28;20674;-77
2021/05/03 01:13:50;;;;;;;0.60;0.60;;;3.90;99.90;;;;;;5071909;28;20222;-77
2021/05/03 01:16:16;;;;;;;0.50;0.50;;;3.90;99.90;;;;;;5072033;28;20211;-77
2021/05/03 01:18:42;;;;;;;0.55;0.55;;;3.90;99.90;;;;;;5072240;28;20282;-77
2021/05/03 01:21:09;;;;;;;0.50;0.50;;;3.80;99.90;;;;;;5072000;28;20227;-77
2021/05/03 01:23:35;;;;;;;0.50;0.50;;;3.80;99.90;;;;;;5071600;28;20257;-77
2021/05/03 01:26:02;;;;;;;0.60;0.60;;;3.80;99.90;;;;;;5072088;28;20576;-78
2021/05/03 01:28:28;;;;;;;0.60;0.60;;;3.70;99.90;;;;;;5071913;28;20215;-77
2021/05/03 01:30:55;;;;;;;0.60;0.60;;;3.70;99.90;;;;;;5071752;28;20574;-77
2021/05/03 01:33:21;;;;;;;0.50;0.50;;;3.70;99.90;;;;;;5071765;28;20206;-77
2021/05/03 01:35:48;;;;;;;0.60;0.60;;;3.70;99.90;;;;;;5071903;28;20212;-77
2021/05/03 01:38:16;;;;;;;0.50;0.50;;;3.70;99.90;;;;;;5071759;28;20211;-77
2021/05/03 01:40:43;;;;;;;0.60;0.60;;;3.70;99.90;;;;;;5071340;28;20272;-77
2021/05/03 01:43:15;;;;;;;0.50;0.50;;;3.70;99.90;;;;;;5071680;28;20210;-77
2021/05/03 01:45:42;;;;;;;0.60;0.60;;;3.80;99.90;;;;;;5071524;28;20214;-77
2021/05/03 01:48:10;;;;;;;0.60;0.60;;;3.80;99.90;;;;;;5071722;28;20204;-77
2021/05/03 01:50:37;;;;;;;0.50;0.50;;;3.80;99.90;;;;;;5071288;28;20204;-77
2021/05/03 01:53:05;;;;;;;0.50;0.50;;;3.80;99.90;;;;;;5070652;28;20204;-77
2021/05/03 01:55:32;;;;;;;0.60;0.60;;;3.90;99.90;;;;;;5071380;28;20216;-77
2021/05/03 01:57:58;;;;;;;0.55;0.55;;;3.80;99.90;;;;;;5071406;28;20203;-77
2021/05/03 02:00:25;;;;;;;0.60;0.60;;;3.80;99.90;;;;;;5071087;28;20227;-77
2021/05/03 02:02:51;;;;;;;0.57;0.57;;;3.90;99.90;;;;;;5070834;28;20276;-77
2021/05/03 02:05:20;;;;;;;0.60;0.60;;;3.90;99.90;;;;;;5071011;28;20684;-77
2021/05/03 02:07:46;;;;;;;0.60;0.60;;;3.90;99.90;;;;;;5070953;28;20222;-77
2021/05/03 02:10:13;;;;;;;0.60;0.60;;;3.90;99.90;;;;;;5071057;28;20667;-77
2021/05/03 02:12:40;;;;;;;0.60;0.60;;;4.20;99.90;;;;;;5070837;28;20204;-77
2021/05/03 02:15:08;;;;;;;0.60;0.60;;;3.90;99.90;;;;;;5071001;28;20207;-77
2021/05/03 02:17:34;;;;;;;0.60;0.60;;;3.90;99.90;;;;;;5070986;28;20257;-77
2021/05/03 02:20:00;;;;;;;0.50;0.50;;;3.90;99.90;;;;;;5070118;28;20944;-77
2021/05/03 02:22:26;;;;;;;0.60;0.60;;;4.00;99.90;;;;;;5070925;28;20211;-77
2021/05/03 02:24:52;;;;;;;0.57;0.57;;;3.80;99.90;;;;;;5070691;28;20693;-77
2021/05/03 02:27:19;;;;;;;0.60;0.60;;;3.90;99.90;;;;;;5070806;28;20227;-77
2021/05/03 02:29:45;;;;;;;0.60;0.60;;;3.40;99.90;;;;;;5070327;28;20245;-77
2021/05/03 02:32:11;;;;;;;0.50;0.50;;;3.80;99.90;;;;;;5070647;28;20203;-77
2021/05/03 02:34:38;;;;;;;0.50;0.50;;;3.90;99.90;;;;;;5070640;28;20203;-77
2021/05/03 02:37:04;;;;;;;0.60;0.60;;;3.90;99.90;;;;;;5070570;28;20624;-77
2021/05/03 02:39:30;;;;;;;0.60;0.60;;;3.80;99.90;;;;;;5070401;28;20485;-77
2021/05/03 02:41:56;;;;;;;0.60;0.60;;;3.80;99.90;;;;;;5070272;28;20666;-77
2021/05/03 02:44:22;;;;;;;0.50;0.50;;;3.80;99.90;;;;;;5070673;28;20203;-76
2021/05/03 02:46:49;;;;;;;0.60;0.60;;;3.70;99.90;;;;;;5069930;28;20214;-77
2021/05/03 02:49:15;;;;;;;0.50;0.50;;;3.70;99.90;;;;;;5070358;28;20211;-77
2021/05/03 02:51:41;;;;;;;0.60;0.60;;;3.60;99.90;;;;;;5070290;28;20199;-77
2021/05/03 02:54:08;;;;;;;0.57;0.57;;;3.60;99.90;;;;;;5070298;28;20203;-76
2021/05/03 02:56:34;;;;;;;0.60;0.60;;;3.60;99.90;;;;;;5069877;28;20205;-76
2021/05/03 02:59:00;;;;;;;0.60;0.60;;;3.50;99.90;;;;;;5070248;28;20208;-77
2021/05/03 03:01:26;;;;;;;0.60;0.60;;;3.50;99.90;;;;;;5069964;28;20763;-76
2021/05/03 03:03:53;;;;;;;0.60;0.60;;;3.50;99.90;;;;;;5069778;28;20208;-76
2021/05/03 03:06:21;;;;;;;0.60;0.60;;;3.50;99.90;;;;;;5069887;28;20239;-76
2021/05/03 03:08:47;;;;;;;0.60;0.60;;;3.50;99.90;;;;;;5069946;28;20298;-77
2021/05/03 03:11:13;;;;;;;0.50;0.50;;;3.40;99.90;;;;;;5070027;28;20207;-77
2021/05/03 03:13:39;;;;;;;0.60;0.60;;;3.50;99.90;;;;;;5069437;28;20239;-77
2021/05/03 03:16:05;;;;;;;0.60;0.60;;;3.50;99.90;;;;;;5069731;28;20261;-77
2021/05/03 03:18:32;;;;;;;0.60;0.60;;;3.50;99.90;;;;;;5069969;28;20200;-77
2021/05/03 03:20:59;;;;;;;0.57;0.57;;;3.50;99.90;;;;;;5069569;28;20253;-77
2021/05/03 03:23:26;;;;;;;0.50;0.50;;;3.50;99.90;;;;;;5069795;28;20215;-78
2021/05/03 03:25:52;;;;;;;0.60;0.60;;;3.50;99.90;;;;;;5069602;28;20250;-77
2021/05/03 03:28:18;;;;;;;0.60;0.60;;;3.50;99.90;;;;;;5069527;28;20691;-77
2021/05/03 03:30:44;;;;;;;0.60;0.60;;;3.40;99.90;;;;;;5069296;28;20204;-77
2021/05/03 03:33:10;;;;;;;0.60;0.60;;;3.40;99.90;;;;;;5069741;28;20204;-77
2021/05/03 03:35:36;;;;;;;0.50;0.50;;;3.40;99.90;;;;;;5069428;28;20208;-77
2021/05/03 03:38:03;;;;;;;0.60;0.60;;;3.40;99.90;;;;;;5069667;28;20208;-77
2021/05/03 03:40:29;;;;;;;0.60;0.60;;;3.40;99.90;;;;;;5069147;28;20253;-77
2021/05/03 03:42:55;;;;;;;0.60;0.60;;;3.40;99.90;;;;;;5069262;28;20208;-77
2021/05/03 03:45:22;;;;;;;0.60;0.60;;;3.30;99.90;;;;;;5069422;28;20207;-77
2021/05/03 03:47:48;;;;;;;0.60;0.60;;;3.20;99.90;;;;;;5069258;28;20243;-77
2021/05/03 03:50:14;;;;;;;0.60;0.60;;;3.30;99.90;;;;;;5069009;28;20699;-77
2021/05/03 03:52:40;;;;;;;0.60;0.60;;;3.30;99.90;;;;;;5069394;28;20203;-77
2021/05/03 03:55:08;;;;;;;0.60;0.60;;;3.20;99.90;;;;;;5069239;28;20236;-77
2021/05/03 03:57:34;;;;;;;0.60;0.60;;;3.20;99.90;;;;;;5069089;28;20204;-77
2021/05/03 04:00:01;;;;;;;0.60;0.60;;;3.20;99.90;;;;;;5068930;28;20504;-77
2021/05/03 04:02:28;;;;;;;0.60;0.60;;;3.20;99.90;;;;;;5069273;28;20204;-77
2021/05/03 04:05:06;;;;;;;0.60;0.60;;;;;;;;;;5069086;28;20235;-77
2021/05/03 04:07:35;;;;;;;0.60;0.60;;;3.20;99.90;;;;;;5069242;28;20203;-77
2021/05/03 04:10:10;;;;;;;0.60;0.60;;;3.10;99.90;;;;;;5069240;28;20673;-77
2021/05/03 04:21:10;;;;;;;0.60;0.60;;;3.10;99.90;;;;;;5069024;28;20656;-77
2021/05/03 04:23:53;;;;;;;0.50;0.50;;;3.10;99.90;;;;;;5069078;28;20211;-77
2021/05/03 04:26:21;;;;;;;0.60;0.60;;;3.10;99.90;;;;;;5068973;28;20772;-77
2021/05/03 04:28:50;;;;;;;0.50;0.50;;;3.10;99.90;;;;;;5068909;28;20248;-76
2021/05/03 04:31:16;;;;;;;0.60;0.60;;;3.10;99.90;;;;;;5068678;28;20203;-77
2021/05/03 04:33:42;;;;;;;0.50;0.50;;;3.10;99.90;;;;;;5068796;28;20724;-76
2021/05/03 04:36:09;;;;;;;0.60;0.60;;;3.10;99.90;;;;;;5068836;28;20200;-76
2021/05/03 04:38:35;;;;;;;0.50;0.50;;;3.20;99.90;;;;;;5068548;28;20200;-76
2021/05/03 04:41:01;;;;;;;0.60;0.60;;;3.30;99.90;;;;;;5068762;28;20641;-76
2021/05/03 04:43:27;;;;;;;0.60;0.60;;;3.40;99.90;;;;;;5068845;28;20252;-76
2021/05/03 04:45:54;;;;;;;0.60;0.60;;;3.50;99.90;;;;;;5068544;28;20204;-76
2021/05/03 04:48:21;;;;;;;0.60;0.60;;;3.60;99.90;;;;;;5068568;28;20210;-76
2021/05/03 04:50:47;;;;;;;0.60;0.60;;;3.70;99.90;;;;;;5068767;28;20200;-77
2021/05/03 04:53:13;;;;;;;0.50;0.50;;;3.70;99.90;;;;;;5068697;28;20284;-76
2021/05/03 04:55:39;;;;;;;0.60;0.60;;;3.90;99.90;;;;;;5068483;28;20420;-76
2021/05/03 04:58:05;;;;;;;0.55;0.55;;;4.10;99.90;;;;;;5068653;28;20208;-77
2021/05/03 05:00:31;;;;;;;0.60;0.60;;;4.20;99.90;;;;;;5068417;28;20224;-77
2021/05/03 05:02:58;;;;;;;0.60;0.60;;;4.40;99.90;;;;;;5068837;28;20208;-76
2021/05/03 05:05:27;;;;;;;0.50;0.50;;;4.70;99.90;;;;;;5068127;28;20523;-76
2021/05/03 05:07:53;;;;;;;0.60;0.60;;;4.80;99.90;;;;;;5068718;28;20262;-77
2021/05/03 05:10:20;;;;;;;0.50;0.50;;;5.10;99.90;;;;;;5068580;28;20226;-76
2021/05/03 05:12:46;;;;;;;0.60;0.60;;;5.40;99.90;;;;;;5068308;28;20666;-76
2021/05/03 05:15:12;;;;;;;0.60;0.60;;;6.10;99.90;;;;;;5068415;28;20203;-76
2021/05/03 05:17:38;;;;;;;0.50;0.50;;;6.10;99.90;;;;;;5068402;28;20211;-76
2021/05/03 05:20:06;;;;;;;0.60;0.60;;;5.90;99.90;;;;;;5068368;28;20302;-76
2021/05/03 05:22:33;;;;;;;0.60;0.60;;;5.40;99.90;;;;;;5068304;28;20298;-76
2021/05/03 05:25:00;;;;;;;0.60;0.60;;;5.00;99.90;;;;;;5068390;28;20204;-76
2021/05/03 05:27:26;;;;;;;0.60;0.60;;;4.90;99.90;;;;;;5070179;28;20608;-76
2021/05/03 05:29:52;;;;;;;0.60;0.60;;;4.90;99.90;;;;;;5071723;28;20204;-77
2021/05/03 05:32:19;;;;;;;0.60;0.60;;;5.00;99.90;;;;;;5071645;28;20218;-76
2021/05/03 05:34:45;;;;;;;0.50;0.50;;;5.10;99.90;;;;;;5071928;28;20262;-76
2021/05/03 05:37:12;;;;;;;0.60;0.60;;;5.00;99.90;;;;;;5071619;28;20204;-76
2021/05/03 05:39:38;;;;;;;0.50;0.50;;;5.10;99.90;;;;;;5071501;28;20200;-77
2021/05/03 05:42:05;;;;;;;0.60;0.60;;;5.20;99.90;;;;;;5071627;28;20204;-77
2021/05/03 05:44:31;;;;;;;0.60;0.60;;;5.20;99.90;;;;;;5071545;28;20658;-77
2021/05/03 05:46:57;;;;;;;0.60;0.60;;;5.30;99.90;;;;;;5071497;28;20199;-77
2021/05/03 05:49:23;;;;;;;0.60;0.60;;;5.20;99.90;;;;;;5071232;28;20690;-77
2021/05/03 05:51:49;;;;;;;0.50;0.50;;;5.10;99.90;;;;;;5071491;28;20230;-76
2021/05/03 05:54:16;;;;;;;0.60;0.60;;;5.30;99.90;;;;;;5071582;28;20207;-76
2021/05/03 05:56:42;;;;;;;0.50;0.50;;;5.30;99.90;;;;;;5070997;28;20579;-76
2021/05/03 05:59:08;;;;;;;0.50;0.50;;;5.40;99.90;;;;;;5071297;28;20208;-76
2021/05/03 06:01:36;;;;;;;0.50;0.50;;;5.70;99.90;;;;;;5071402;28;20219;-76
2021/05/03 06:04:03;;;;;;;0.60;0.60;;;5.80;99.90;;;;;;5070769;28;20215;-76
2021/05/03 06:06:29;;;;;;;0.60;0.60;;;5.80;99.90;;;;;;5071540;28;20196;-77
2021/05/03 06:08:55;;;;;;;0.60;0.60;;;5.60;99.90;;;;;;5071175;28;20658;-76
2021/05/03 06:11:22;;;;;;;0.60;0.60;;;5.80;99.90;;;;;;5071087;28;20207;-77
2021/05/03 06:13:48;;;;;;;0.60;0.60;;;6.00;99.90;;;;;;5071133;28;20290;-78
2021/05/03 06:16:14;;;;;;;0.50;0.50;;;6.10;99.90;;;;;;5070964;28;20207;-76
2021/05/03 06:18:40;;;;;;;0.60;0.60;;;6.30;99.90;;;;;;5070891;28;20208;-76
2021/05/03 06:21:07;;;;;;;0.60;0.60;;;6.30;99.90;;;;;;5070770;28;20223;-76
2021/05/03 06:23:33;;;;;;;0.60;0.60;;;6.30;99.90;;;;;;5070938;28;20208;-76
2021/05/03 06:25:59;;;;;;;0.50;0.50;;;6.30;99.90;;;;;;5070796;28;20353;-80
2021/05/03 06:28:26;;;;;;;0.60;0.60;;;6.30;99.90;;;;;;5070646;28;20691;-79
2021/05/03 06:30:55;;;;;;;0.57;0.57;;;6.40;99.90;;;;;;5070928;28;20203;-80
2021/05/03 06:33:22;;;;;;;0.60;0.60;;;6.30;99.90;;;;;;5070752;28;20242;-77
2021/05/03 06:35:48;;;;;;;0.60;0.60;;;6.40;99.90;;;;;;5068840;28;20311;-77
2021/05/03 06:38:14;;;;;;;0.60;0.60;;;6.40;99.90;;;;;;5070672;28;20203;-81
2021/05/03 06:40:40;;;;;;;0.50;0.50;;;6.50;99.90;;;;;;5071028;28;20227;-80
2021/05/03 06:43:07;;;;;;;0.50;0.50;;;6.50;99.90;;;;;;5070984;28;20253;-76
2021/05/03 06:45:34;;;;;;;0.60;0.60;;;6.60;99.90;;;;;;5070250;28;20219;-76
2021/05/03 06:48:00;;;;;;;0.60;0.60;;;6.70;99.90;;;;;;5070231;28;20727;-77
2021/05/03 06:50:27;;;;;;;0.52;0.52;;;6.70;99.90;;;;;;5070368;28;20199;-76
2021/05/03 06:52:53;;;;;;;0.60;0.60;;;6.60;99.90;;;;;;5070286;28;20219;-76
2021/05/03 06:55:20;;;;;;;0.60;0.60;;;6.60;99.90;;;;;;5070183;28;20204;-77
2021/05/03 06:57:46;;;;;;;0.60;0.60;;;6.50;99.90;;;;;;5069470;28;20208;-77
2021/05/03 07:00:14;;;;;;;0.60;0.60;;;6.50;99.90;;;;;;5068642;28;20281;-76
2021/05/03 07:02:42;;;;;;;0.50;0.50;;;6.40;99.90;;;;;;5069985;28;20578;-77
2021/05/03 07:05:11;;;;;;;0.60;0.60;;;6.40;99.90;;;;;;5069877;28;20231;-77
2021/05/03 07:07:37;;;;;;;0.60;0.60;;;6.40;99.90;;;;;;5070100;28;20211;-76
2021/05/03 07:10:04;;;;;;;0.50;0.50;;;6.40;99.90;;;;;;5069430;28;20687;-77
2021/05/03 07:12:32;;;;;;;0.60;0.60;;;6.40;99.90;;;;;;5069567;28;20200;-77
2021/05/03 07:14:58;;;;;;;0.60;0.60;;;6.50;99.90;;;;;;5061650;28;20225;-76
2021/05/03 07:17:24;;;;;;;0.57;0.57;;;6.70;99.90;;;;;;5068420;28;20203;-76
2021/05/03 07:19:52;;;;;;;0.60;0.60;;;6.80;99.90;;;;;;5066040;28;20203;-76
2021/05/03 07:22:18;;;;;;;0.50;0.50;;;6.80;99.90;;;;;;5067410;28;20202;-76
2021/05/03 07:24:44;;;;;;;0.60;0.60;;;6.90;99.90;;;;;;5069264;28;20712;-76
2021/05/03 07:27:11;;;;;;;0.60;0.60;;;6.90;99.90;;;;;;5069229;28;20227;-76
2021/05/03 07:29:38;;;;;;;0.60;0.60;;;6.80;99.90;;;;;;5069904;28;20617;-76
2021/05/03 07:32:06;;;;;;;0.50;0.50;;;6.70;99.90;;;;;;5069671;28;20215;-76
2021/05/03 07:34:32;;;;;;;0.60;0.60;;;6.90;99.90;;;;;;5069827;28;20211;-77
2021/05/03 07:36:59;;;;;;;0.55;0.55;;;7.10;99.90;;;;;;5069816;28;20566;-80
2021/05/03 07:39:25;;;;;;;0.60;0.60;;;7.10;99.90;;;;;;5069800;28;20207;-78
2021/05/03 07:41:51;;;;;;;0.60;0.60;;;6.60;99.90;;;;;;5069235;28;20323;-79
2021/05/03 07:44:17;;;;;;;0.50;0.50;;;7.00;99.90;;;;;;5069411;28;20241;-80
2021/05/03 07:46:43;;;;;;;0.50;0.50;;;7.10;99.90;;;;;;5069691;28;20580;-79
2021/05/03 07:49:09;;;;;;;0.60;0.60;;;7.20;99.90;;;;;;5068882;28;20624;-79
2021/05/03 07:51:36;;;;;;;0.60;0.60;;;7.40;99.90;;;;;;5069482;28;20220;-78
2021/05/03 07:54:04;;;;;;;0.60;0.60;;;7.40;99.90;;;;;;5069120;28;20673;-79
2021/05/03 07:56:31;;;;;;;0.60;0.60;;;7.30;99.90;;;;;;5069503;28;20204;-77
2021/05/03 07:58:58;;;;;;;0.60;0.60;;;7.20;99.90;;;;;;5069555;28;20265;-77
2021/05/03 08:01:24;;;;;;;0.55;0.55;;;7.10;99.90;;;;;;5069045;28;20223;-78
2021/05/03 08:03:51;;;;;;;0.60;0.60;;;7.40;99.90;;;;;;5069477;28;20203;-78
2021/05/03 08:06:17;;;;;;;0.60;0.60;;;7.60;99.90;;;;;;5069063;28;20235;-78
2021/05/03 08:08:45;;;;;;;0.60;0.60;;;8.00;99.90;;;;;;5069106;28;20417;-78
2021/05/03 08:11:13;;;;;;;0.50;0.50;;;8.00;99.90;;;;;;5069352;28;20249;-82
2021/05/03 08:13:41;;;;;;;0.60;0.60;;;7.80;99.90;;;;;;5069175;28;20567;-79
2021/05/03 08:16:11;;;;;;;0.60;0.60;;;7.90;99.90;;;;;;5069068;28;20743;-84
2021/05/03 08:18:40;;;;;;;0.50;0.50;;;8.00;99.90;;;;;;5069288;28;20540;-77
2021/05/03 08:21:10;;;;;;;0.50;0.50;;;7.80;99.90;;;;;;5068412;28;20231;-77
2021/05/03 08:23:37;;;;;;;0.50;0.50;;;9.30;99.90;;;;;;5066202;28;20654;-77
2021/05/03 08:26:03;;;;;;;0.60;0.60;;;7.90;99.90;;;;;;5068544;28;20219;-78
2021/05/03 08:28:30;;;;;;;0.60;0.60;;;7.90;99.90;;;;;;5068430;28;20192;-78
2021/05/03 08:30:57;;;;;;;0.60;0.60;;;8.10;99.90;;;;;;5069380;28;20204;-77
2021/05/03 08:33:23;;;;;;;0.60;0.60;;;8.20;99.90;;;;;;5069410;28;20662;-82
2021/05/03 08:35:49;;;;;;;0.60;0.60;;;8.30;99.90;;;;;;5068753;28;20207;-77
2021/05/03 08:38:18;;;;;;;0.60;0.60;;;8.10;99.90;;;;;;5066784;28;20720;-78
2021/05/03 08:40:44;;;;;;;0.60;0.60;;;7.90;99.90;;;;;;5065303;28;20314;-78
2021/05/03 08:43:11;;;;;;;0.50;0.50;;;7.80;99.90;;;;;;5067308;28;20207;-78
2021/05/03 08:45:39;;;;;;;0.60;0.60;;;7.70;99.90;;;;;;5068463;28;20662;-78
2021/05/03 08:48:09;;;;;;;0.60;0.60;;;7.80;99.90;;;;;;5068552;28;20215;-78
2021/05/03 08:50:51;;;;;;;0.60;0.60;;;7.70;99.90;;;;;;5068636;28;20203;-78
2021/05/03 08:53:23;;;;;;;0.60;0.60;;;7.60;99.90;;;;;;5068473;28;20547;-78
2021/05/03 08:55:49;;;;;;;0.60;0.60;;;7.50;99.90;;;;;;5065046;28;20597;-78
2021/05/03 08:58:15;;;;;;;0.60;0.60;;;7.40;99.90;;;;;;5067642;28;20210;-78
2021/05/03 09:00:42;;;;;;;0.60;0.60;;;7.60;99.90;;;;;;5067962;28;20226;-78
2021/05/03 09:03:11;;;;;;;0.50;0.50;;;7.60;99.90;;;;;;5071397;28;20587;-78
2021/05/03 09:05:37;;;;;;;0.60;0.60;;;7.70;99.90;;;;;;5071173;28;20231;-78
2021/05/03 09:08:04;;;;;;;0.57;0.57;;;7.80;99.90;;;;;;5071114;28;20273;-78
2021/05/03 09:10:31;;;;;;;0.60;0.60;;;7.90;99.90;;;;;;5071399;28;20203;-78
2021/05/03 09:13:08;;;;;;;0.60;0.60;;;7.80;99.90;;;;;;5071201;28;20207;-78
2021/05/03 09:15:34;;;;;;;0.60;0.60;;;7.70;99.90;;;;;;5071053;28;20203;-77
2021/05/03 09:18:01;;;;;;;0.60;0.60;;;7.30;99.90;;;;;;5071072;28;20261;-78
2021/05/03 09:20:29;;;;;;;0.50;0.50;;;6.90;99.90;;;;;;5071018;28;20344;-77
2021/05/03 09:22:58;;;;;;;0.50;0.50;;;6.70;99.90;;;;;;5071050;28;20658;-77
2021/05/03 09:25:30;;;;;;;0.60;0.60;;;6.60;99.90;;;;;;5071008;28;20306;-77
2021/05/03 09:28:08;;;;;;;0.50;0.50;;;6.60;99.90;;;;;;5071129;28;20286;-77
2021/05/03 09:30:40;;;;;;;0.60;0.60;;;6.70;99.90;;;;;;5071171;28;20241;-78
2021/05/03 09:33:18;;;;;;;0.60;0.60;;;6.80;99.90;;;;;;5070673;28;20257;-78
2021/05/03 09:35:47;;;;;;;0.57;0.57;;;6.90;99.90;;;;;;5070890;28;20665;-78
2021/05/03 09:38:37;;;;;;;0.50;0.50;;;7.00;99.90;;;;;;5070701;28;20206;-77
2021/05/03 09:41:17;;;;;;;0.50;0.50;;;7.20;99.90;;;;;;5070833;28;20224;-77
2021/05/03 09:43:46;;;;;;;0.50;0.50;;;7.30;99.90;;;;;;5070646;28;20217;-77
2021/05/03 09:46:25;;;;;;;0.60;0.60;;;7.40;99.90;;;;;;5070817;28;20207;-78
2021/05/03 09:48:53;;;;;;;0.60;0.60;;;7.50;99.90;;;;;;5070712;28;20214;-77
2021/05/03 09:51:33;;;;;;;0.50;0.50;;;7.40;99.90;;;;;;5070249;28;20674;-77
2021/05/03 09:54:08;;;;;;;0.60;0.60;;;7.50;99.90;;;;;;5070322;28;20207;-78
2021/05/03 09:56:52;;;;;;;0.50;0.50;;;7.50;99.90;;;;;;5070597;28;20211;-77
2021/05/03 09:59:36;;;;;;;0.60;0.60;;;7.50;99.90;;;;;;5070201;28;20200;-77
2021/05/03 10:02:17;;;;;;;0.52;0.52;;;7.60;99.90;;;;;;5070116;28;20448;-78
2021/05/03 10:04:57;;;;;;;0.60;0.60;;;7.50;99.90;;;;;;5070326;28;20316;-77
2021/05/03 10:07:25;;;;;;;0.50;0.50;;;6.50;99.90;;;;;;5070279;28;20203;-77
2021/05/03 10:09:57;;;;;;;0.55;0.55;;;7.10;99.90;;;;;;5070143;28;20210;-77
2021/05/03 10:12:25;;;;;;;0.60;0.60;;;7.20;99.90;;;;;;5069236;28;20204;-77
2021/05/03 10:14:53;;;;;;;0.60;0.60;;;7.20;99.90;;;;;;5070267;28;20294;-77
2021/05/03 10:17:19;;;;;;;0.60;0.60;;;6.90;99.90;;;;;;5069557;28;20207;-77
2021/05/03 10:19:51;;;;;;;0.50;0.50;;;6.70;99.90;;;;;;5070265;28;20203;-77
2021/05/03 10:22:19;;;;;;;0.50;0.50;;;6.70;99.90;;;;;;5069435;28;20200;-77
2021/05/03 10:24:47;;;;;;;0.60;0.60;;;6.70;99.90;;;;;;5069993;28;20740;-77
2021/05/03 10:27:16;;;;;;;0.60;0.60;;;6.70;99.90;;;;;;5070054;28;20219;-77
2021/05/03 10:29:44;;;;;;;0.60;0.60;;;6.70;99.90;;;;;;5069734;28;20200;-77
2021/05/03 10:32:12;;;;;;;0.60;0.60;;;6.80;99.90;;;;;;5069659;28;20272;-77
2021/05/03 10:34:44;;;;;;;0.60;0.60;;;6.80;99.90;;;;;;5069495;28;20829;-77
2021/05/03 10:37:39;;;;;;;0.60;0.60;;;6.80;99.90;;;;;;5069669;28;20203;-77
2021/05/03 10:40:08;;;;;;;0.55;0.55;;;6.90;99.90;;;;;;5067758;28;20212;-77
2021/05/03 10:42:34;;;;;;;0.60;0.60;;;6.90;99.90;;;;;;5069218;28;20412;-77
2021/05/03 10:45:11;;;;;;;0.60;0.60;;;6.90;99.90;;;;;;5069376;28;20207;-77
2021/05/03 10:47:40;;;;;;;0.50;0.50;;;7.10;99.90;;;;;;5069064;28;20220;-78
2021/05/03 10:50:48;;;;;;;0.60;0.60;;;7.00;99.90;;;;;;5069325;28;20207;-77
2021/05/03 10:53:28;;;;;;;0.57;0.57;;;7.20;99.90;;;;;;5054790;28;20211;-77
2021/05/03 10:55:56;;;;;;;0.60;0.60;;;7.40;99.90;;;;;;5069111;28;20207;-77
2021/05/03 10:58:24;;;;;;;0.60;0.60;;;7.50;99.90;;;;;;5069057;28;20207;-77
2021/05/03 11:00:59;;;;;;;0.60;0.60;;;7.50;99.90;;;;;;5068789;28;20235;-77
2021/05/03 11:04:02;;;;;;;0.50;0.50;;;7.60;99.90;;;;;;5067286;28;20203;-77
2021/05/03 11:07:11;;;;;;;0.50;0.50;;;7.60;99.90;;;;;;5068963;28;20199;-77
2021/05/03 11:09:41;;;;;;;0.60;0.60;;;7.40;99.90;;;;;;5069853;28;20290;-77
2021/05/03 11:12:29;;;;;;;0.60;0.60;;;7.40;99.90;;;;;;5069733;28;20551;-77
2021/05/03 11:15:18;;;;;;;0.60;0.60;;;7.60;99.90;;;;;;5069759;28;20211;-77
2021/05/03 11:18:20;;;;;;;0.60;0.60;;;7.80;99.90;;;;;;5069897;28;20286;-77
2021/05/03 11:21:14;;;;;;;0.60;0.60;;;7.90;99.90;;;;;;5069612;28;20273;-77
2021/05/03 11:23:41;;;;;;;0.60;0.60;;;7.90;99.90;;;;;;5069712;28;20214;-77
2021/05/03 11:26:25;;;;;;;0.60;0.60;;;8.10;99.90;;;;;;5069613;28;20238;-77
2021/05/03 11:28:52;;;;;;;0.57;0.57;;;8.50;99.90;;;;;;5069570;28;20226;-77
2021/05/03 11:31:21;;;;;;;0.60;0.60;;;8.50;99.90;;;;;;5069165;28;20479;-77
2021/05/03 11:33:58;;;;;;;0.57;0.57;;;8.20;99.90;;;;;;5069414;28;20207;-78
2021/05/03 11:36:29;;;;;;;0.60;0.60;;;8.10;99.90;;;;;;5069332;28;20207;-77
2021/05/03 11:39:00;;;;;;;0.60;0.60;;;8.10;99.90;;;;;;5069528;28;20234;-78
2021/05/03 11:44:24;;;;;;;0.60;0.60;;;8.20;99.90;;;;;;5058402;28;20547;-78
2021/05/03 11:46:52;;;;;;;0.50;0.50;;;9.80;99.90;;;;;;5069690;28;20215;-76
2021/05/03 11:49:19;;;;;;;0.60;0.60;;;8.00;99.90;;;;;;5069562;28;20203;-77
2021/05/03 11:51:48;;;;;;;0.60;0.60;;;8.10;99.90;;;;;;5069622;28;20293;-77
2021/05/03 11:54:26;;;;;;;0.60;0.60;;;8.20;99.90;;;;;;5069574;28;20264;-76
2021/05/03 11:56:58;;;;;;;0.60;0.60;;;8.30;99.90;;;;;;5069638;28;20210;-76
2021/05/03 11:59:24;;;;;;;0.60;0.60;;;8.30;99.90;;;;;;5069144;28;20218;-77
2021/05/03 12:02:01;;;;;;;0.60;0.60;;;8.30;99.90;;;;;;5067679;28;20231;-79
2021/05/03 12:04:35;;;;;;;0.60;0.60;;;8.30;99.90;;;;;;5064370;28;20281;-78
2021/05/03 12:07:11;;;;;;;0.60;0.60;;;8.50;99.90;;;;;;5062260;28;20206;-78
2021/05/03 12:09:37;;;;;;;0.60;0.60;;;8.70;99.90;;;;;;5063804;28;20211;-78
2021/05/03 12:12:05;;;;;;;0.50;0.50;;;8.60;99.90;;;;;;5063041;28;20484;-78
2021/05/03 12:14:42;;;;;;;0.50;0.50;;;8.80;99.90;;;;;;5067687;28;20257;-78
2021/05/03 12:17:16;;;;;;;0.60;0.60;;;8.90;99.90;;;;;;5064226;28;20213;-78
2021/05/03 12:19:43;;;;;;;0.60;0.60;;;8.90;99.90;;;;;;5063880;28;20207;-78
2021/05/03 12:22:09;;;;;;;0.60;0.60;;;8.80;99.90;;;;;;5063934;28;20223;-78
2021/05/03 12:24:40;;;;;;;0.60;0.60;;;8.50;99.90;;;;;;5062226;28;20226;-78
2021/05/03 12:27:07;;;;;;;0.60;0.60;;;8.50;99.90;;;;;;5067170;28;20274;-78
2021/05/03 12:29:34;;;;;;;0.60;0.60;;;8.50;99.90;;;;;;5063868;28;20204;-78
2021/05/03 12:32:00;;;;;;;0.60;0.60;;;8.90;99.90;;;;;;5064041;28;20681;-78
2021/05/03 12:34:26;;;;;;;0.52;0.52;;;8.80;99.90;;;;;;5067351;28;20203;-78
2021/05/03 12:37:06;;;;;;;0.50;0.50;;;8.70;99.90;;;;;;5069228;28;20195;-77
2021/05/03 12:39:32;;;;;;;0.60;0.60;;;8.70;99.90;;;;;;5066064;28;20586;-77
2021/05/03 12:42:11;;;;;;;0.60;0.60;;;9.00;99.90;;;;;;5071715;28;20223;-78
2021/05/03 12:44:42;;;;;;;0.57;0.57;;;9.10;99.90;;;;;;5069396;28;20208;-77
2021/05/03 12:47:34;;;;;;;0.60;0.60;;;9.00;99.90;;;;;;5067961;28;20207;-78
2021/05/03 12:50:07;;;;;;;0.60;0.60;;;8.90;99.90;;;;;;5067963;28;20204;-78
2021/05/03 12:52:39;;;;;;;0.60;0.60;;;8.80;99.90;;;;;;5069222;28;20239;-78
2021/05/03 12:55:10;;;;;;;0.60;0.60;;;8.60;99.90;;;;;;5069490;28;20264;-78
2021/05/03 12:57:51;;;;;;;0.60;0.60;;;8.40;99.90;;;;;;5070763;28;20745;-81
2021/05/03 13:00:22;;;;;;;0.60;0.60;;;8.30;99.90;;;;;;5067803;28;20207;-78
2021/05/03 13:03:10;;;;;;;0.60;0.60;;;8.30;99.90;;;;;;5067337;28;20575;-78
2021/05/03 13:05:40;;;;;;;0.50;0.50;;;8.40;99.90;;;;;;5065403;28;20227;-78
2021/05/03 13:08:14;;;;;;;0.60;0.60;;;8.50;99.90;;;;;;5065749;28;20196;-78
2021/05/03 13:11:07;;;;;;;0.60;0.60;;;8.60;99.90;;;;;;5065539;28;20206;-78
2021/05/03 13:22:34;;;;;;;0.50;0.50;;;9.20;99.90;;;;;;5066967;28;20311;-77
2021/05/03 13:25:19;;;;;;;0.50;0.50;;;9.40;99.90;;;;;;5068820;28;20570;-77
2021/05/03 13:28:08;;;;;;;0.60;0.60;;;9.20;99.90;;;;;;5072094;28;20227;-78